Time;durP1;ratioP1;P1;durP2;ratioP2;P2;SDS_P1;SDS_P2;PMS_P1;PMS_P2;Temp;Humidity;BMP_temperature;BMP_pressure;BME280_temperature;BME280_humidity;BME280_pressure;Samples;Min_cycle;Max_cycle;Signal;HPM_P1;HPM_P2
2022/06/06 00:01:15;;;;;;;10.50;7.22;;;16.00;99.90;;;;;;5054930;28;20480;-69
2022/06/06 00:03:42;;;;;;;10.75;7.60;;;16.00;99.90;;;;;;5054530;28;20045;-69
2022/06/06 00:06:10;;;;;;;16.27;8.50;;;16.00;99.90;;;;;;5058042;28;20081;-69
2022/06/06 00:08:36;;;;;;;17.15;8.43;;;16.00;99.90;;;;;;5051141;28;20088;-69
2022/06/06 00:11:04;;;;;;;14.27;8.40;;;16.00;99.90;;;;;;5055914;28;20111;-69
2022/06/06 00:13:30;;;;;;;18.35;8.60;;;16.00;99.90;;;;;;5051121;28;20116;-69
2022/06/06 00:15:56;;;;;;;14.48;9.10;;;16.00;99.90;;;;;;5056914;28;20060;-69
2022/06/06 00:18:22;;;;;;;16.10;9.00;;;15.90;99.90;;;;;;5053697;28;20640;-69
2022/06/06 00:20:47;;;;;;;13.98;9.55;;;15.90;99.90;;;;;;5055077;28;20053;-69
2022/06/06 00:23:13;;;;;;;12.13;9.10;;;15.90;99.90;;;;;;5048326;28;20401;-69
2022/06/06 00:25:38;;;;;;;12.13;9.23;;;16.00;99.90;;;;;;5051247;28;20045;-69
2022/06/06 00:28:05;;;;;;;12.57;9.23;;;15.90;99.90;;;;;;5065049;28;20044;-69
2022/06/06 00:30:30;;;;;;;14.85;9.18;;;16.00;99.90;;;;;;5050059;28;20060;-69
2022/06/06 00:35:40;;;;;;;13.23;9.13;;;16.00;99.90;;;;;;5049588;28;20071;-69
2022/06/06 00:38:06;;;;;;;12.52;8.57;;;16.00;99.90;;;;;;5053951;28;20425;-69
2022/06/06 00:40:33;;;;;;;15.65;9.32;;;15.90;99.90;;;;;;5055677;28;20045;-69
2022/06/06 00:42:59;;;;;;;11.55;8.60;;;15.90;99.90;;;;;;5051728;28;20053;-69
2022/06/06 00:45:36;;;;;;;13.23;8.73;;;16.00;99.90;;;;;;5059367;28;20131;-69
2022/06/06 00:48:11;;;;;;;13.98;9.30;;;15.90;99.90;;;;;;5053111;28;20047;-69
2022/06/06 00:51:09;;;;;;;14.82;8.32;;;16.00;99.90;;;;;;5054060;28;20090;-69
2022/06/06 00:53:54;;;;;;;12.27;8.82;;;15.90;99.90;;;;;;5053591;28;20067;-69
2022/06/06 00:56:28;;;;;;;15.63;8.80;;;15.90;99.90;;;;;;5055368;28;20041;-69
2022/06/06 00:58:59;;;;;;;14.68;8.32;;;15.90;99.90;;;;;;5056800;28;20044;-69
2022/06/06 01:01:26;;;;;;;12.30;7.80;;;15.80;99.90;;;;;;5052457;28;20541;-69
2022/06/06 01:03:55;;;;;;;14.95;7.07;;;15.80;99.90;;;;;;5046776;28;20049;-70
2022/06/06 01:06:22;;;;;;;15.07;8.07;;;15.80;99.90;;;;;;5050355;28;20049;-70
2022/06/06 01:08:50;;;;;;;13.30;7.57;;;16.10;99.90;;;;;;5053011;28;20049;-70
2022/06/06 01:11:15;;;;;;;14.45;7.15;;;15.70;99.90;;;;;;5059808;28;20393;-69
2022/06/06 01:13:45;;;;;;;12.52;7.45;;;15.60;99.90;;;;;;5055446;28;20132;-69
2022/06/06 01:16:35;;;;;;;11.75;6.78;;;15.60;99.90;;;;;;5059030;28;20064;-70
2022/06/06 01:19:19;;;;;;;13.48;8.25;;;15.60;99.90;;;;;;5050799;28;20457;-70
2022/06/06 01:21:45;;;;;;;15.32;8.57;;;15.50;99.90;;;;;;5052206;28;20425;-70
2022/06/06 01:24:23;;;;;;;15.05;7.57;;;15.40;99.90;;;;;;5061559;28;20050;-70
2022/06/06 01:27:14;;;;;;;15.68;8.63;;;15.40;99.90;;;;;;5052771;28;20051;-69
2022/06/06 01:29:48;;;;;;;11.90;8.52;;;15.30;99.90;;;;;;5048502;28;20045;-69
2022/06/06 01:32:19;;;;;;;11.90;7.70;;;15.30;99.90;;;;;;5054763;28;20044;-69
2022/06/06 01:34:48;;;;;;;10.40;7.70;;;15.30;99.90;;;;;;5058291;28;20052;-70
2022/06/06 01:37:37;;;;;;;11.98;8.40;;;15.10;99.90;;;;;;5048527;28;20060;-70
2022/06/06 01:40:07;;;;;;;10.95;7.47;;;15.10;99.90;;;;;;5045939;28;20045;-69
2022/06/06 01:42:36;;;;;;;11.38;7.72;;;15.10;99.90;;;;;;5045078;28;20124;-70
2022/06/06 01:45:11;;;;;;;12.32;7.43;;;15.00;99.90;;;;;;5045860;28;20472;-69
2022/06/06 01:47:42;;;;;;;9.75;8.30;;;15.00;99.90;;;;;;5044151;28;20061;-69
2022/06/06 01:50:09;;;;;;;8.02;7.15;;;14.90;99.90;;;;;;5044488;28;20052;-69
2022/06/06 01:52:52;;;;;;;9.40;7.32;;;15.00;99.90;;;;;;5046381;28;20055;-69
2022/06/06 01:55:19;;;;;;;10.38;7.05;;;14.90;99.90;;;;;;5044091;28;20045;-70
2022/06/06 01:57:47;;;;;;;8.00;6.57;;;14.90;99.90;;;;;;5044914;28;20052;-69
2022/06/06 02:00:14;;;;;;;12.10;6.80;;;14.90;99.90;;;;;;5046360;28;20049;-69
2022/06/06 02:02:43;;;;;;;11.50;5.95;;;14.90;99.90;;;;;;5046506;28;20037;-69
2022/06/06 02:05:11;;;;;;;11.77;6.75;;;14.80;99.90;;;;;;5052569;28;20116;-69
2022/06/06 02:07:38;;;;;;;9.57;6.25;;;14.90;99.90;;;;;;5052568;28;20052;-69
2022/06/06 02:10:04;;;;;;;11.73;6.13;;;14.80;99.90;;;;;;5051802;28;20115;-69
2022/06/06 02:12:30;;;;;;;10.32;6.95;;;14.80;99.90;;;;;;5052485;28;20049;-69
2022/06/06 02:14:56;;;;;;;11.18;5.57;;;14.80;99.90;;;;;;5052412;28;20455;-69
2022/06/06 02:17:21;;;;;;;10.20;6.57;;;14.70;99.90;;;;;;5051862;28;20087;-69
2022/06/06 02:19:47;;;;;;;12.38;6.05;;;14.60;99.90;;;;;;5052243;28;20064;-69
2022/06/06 02:22:12;;;;;;;6.97;4.93;;;14.60;99.90;;;;;;5052652;28;20045;-69
2022/06/06 02:24:38;;;;;;;10.85;5.35;;;14.50;99.90;;;;;;5052093;28;20048;-69
2022/06/06 02:27:04;;;;;;;8.65;5.00;;;14.50;99.90;;;;;;5052068;28;20087;-69
2022/06/06 02:29:30;;;;;;;8.40;4.55;;;14.40;99.90;;;;;;5058513;28;20033;-70
2022/06/06 02:31:55;;;;;;;10.40;5.00;;;14.50;99.90;;;;;;5060643;28;20637;-69
2022/06/06 02:34:21;;;;;;;5.95;4.60;;;14.40;99.90;;;;;;5055144;28;20044;-69
2022/06/06 02:36:47;;;;;;;9.13;4.65;;;14.40;99.90;;;;;;5051796;28;20049;-70
2022/06/06 02:39:13;;;;;;;7.03;4.70;;;14.40;99.90;;;;;;5055093;28;20044;-69
2022/06/06 02:41:39;;;;;;;4.40;4.00;;;14.50;99.90;;;;;;5065475;28;20542;-69
2022/06/06 02:44:05;;;;;;;5.30;4.57;;;14.40;99.90;;;;;;5055980;28;20048;-69
2022/06/06 02:46:31;;;;;;;5.18;4.40;;;14.40;99.90;;;;;;5050710;28;20055;-70
2022/06/06 02:48:56;;;;;;;6.18;4.15;;;14.40;99.90;;;;;;5072104;28;20166;-70
2022/06/06 02:51:22;;;;;;;7.03;4.38;;;14.40;99.90;;;;;;5052641;28;20631;-69
2022/06/06 02:53:49;;;;;;;4.97;3.75;;;14.40;99.90;;;;;;5055095;28;20421;-69
2022/06/06 02:56:14;;;;;;;5.82;3.97;;;14.40;99.90;;;;;;5051075;28;20049;-69
2022/06/06 02:58:40;;;;;;;6.50;4.10;;;14.30;99.90;;;;;;5060747;28;20047;-69
2022/06/06 03:01:09;;;;;;;5.88;4.75;;;14.30;99.90;;;;;;5062038;28;20435;-69
2022/06/06 03:03:35;;;;;;;8.43;4.03;;;14.40;99.90;;;;;;5056874;28;20033;-69
2022/06/06 03:06:24;;;;;;;7.18;4.53;;;14.30;99.90;;;;;;5068829;28;20048;-69
2022/06/06 03:08:56;;;;;;;5.65;3.97;;;14.30;99.90;;;;;;5066636;28;20091;-69
2022/06/06 03:11:28;;;;;;;5.03;3.80;;;14.20;99.90;;;;;;5052326;28;20503;-69
2022/06/06 03:14:01;;;;;;;4.13;3.83;;;14.20;99.90;;;;;;5049578;28;20084;-69
2022/06/06 03:22:47;;;;;;;7.57;4.30;;;14.20;99.90;;;;;;5060277;28;20084;-69
2022/06/06 03:25:43;;;;;;;5.35;4.72;;;14.30;99.90;;;;;;5044876;28;20420;-68
2022/06/06 03:28:24;;;;;;;4.32;3.92;;;14.10;99.90;;;;;;5049784;28;20106;-69
2022/06/06 03:31:27;;;;;;;8.23;4.72;;;14.10;99.90;;;;;;5048236;28;20607;-69
2022/06/06 03:34:05;;;;;;;6.10;4.57;;;14.10;99.90;;;;;;5054634;28;20672;-69
2022/06/06 03:36:38;;;;;;;6.28;4.60;;;14.10;99.90;;;;;;5061200;28;20060;-69
2022/06/06 03:39:29;;;;;;;6.45;4.70;;;14.20;99.90;;;;;;5047098;28;20057;-68
2022/06/06 03:42:26;;;;;;;7.45;4.35;;;14.10;99.90;;;;;;5047651;28;20123;-69
2022/06/06 03:45:00;;;;;;;6.72;5.38;;;14.10;99.90;;;;;;5053037;28;20056;-69
2022/06/06 03:47:54;;;;;;;9.25;5.22;;;14.10;99.90;;;;;;5056924;28;20052;-69
2022/06/06 03:50:48;;;;;;;8.20;5.70;;;14.10;99.90;;;;;;5048170;28;20513;-69
2022/06/06 03:53:35;;;;;;;6.57;4.78;;;14.10;99.90;;;;;;5047407;28;20171;-69
2022/06/06 03:56:22;;;;;;;8.43;6.07;;;14.00;99.90;;;;;;5047206;28;20066;-68
2022/06/06 03:58:49;;;;;;;6.07;5.13;;;14.00;99.90;;;;;;5047871;28;20098;-69
2022/06/06 04:01:15;;;;;;;9.48;5.90;;;14.00;99.90;;;;;;5046074;28;20049;-69
2022/06/06 04:03:43;;;;;;;5.28;4.82;;;14.00;99.90;;;;;;5046832;28;20087;-69
2022/06/06 04:06:10;;;;;;;7.55;5.47;;;14.00;99.90;;;;;;5047833;28;20096;-68
2022/06/06 04:08:36;;;;;;;7.22;5.50;;;14.00;99.90;;;;;;5047242;28;20413;-69
2022/06/06 04:11:18;;;;;;;5.85;5.20;;;14.00;99.90;;;;;;5049272;28;20037;-69
2022/06/06 04:13:46;;;;;;;7.78;6.07;;;14.00;99.90;;;;;;5052876;28;20041;-68
2022/06/06 04:16:34;;;;;;;8.20;6.05;;;14.00;99.90;;;;;;5052926;28;20061;-69
2022/06/06 04:19:38;;;;;;;5.15;4.65;;;14.00;99.90;;;;;;5049104;28;20053;-69
2022/06/06 04:22:07;;;;;;;7.90;5.68;;;14.00;99.90;;;;;;4993013;28;20062;-69
2022/06/06 04:24:48;;;;;;;6.35;4.90;;;12.90;99.90;;;;;;4995423;28;20045;-69
2022/06/06 04:27:56;;;;;;;7.57;4.77;;;14.00;99.90;;;;;;5029293;28;20540;-68
2022/06/06 04:30:38;;;;;;;4.95;4.55;;;14.00;99.90;;;;;;5049829;28;20540;-68
2022/06/06 04:33:09;;;;;;;4.87;4.40;;;14.90;99.90;;;;;;5052218;28;20045;-69
2022/06/06 04:36:02;;;;;;;6.72;4.60;;;14.00;99.90;;;;;;5053537;28;20303;-69
2022/06/06 04:38:39;;;;;;;9.60;5.35;;;14.00;99.90;;;;;;5053794;28;20333;-69
2022/06/06 04:41:38;;;;;;;8.82;4.55;;;14.00;99.90;;;;;;5053963;28;20081;-68
2022/06/06 04:44:19;;;;;;;7.05;4.60;;;14.00;99.90;;;;;;5037372;28;20115;-69
2022/06/06 04:47:07;;;;;;;5.18;4.15;;;14.00;99.90;;;;;;5053115;28;20044;-69
2022/06/06 04:49:33;;;;;;;6.63;4.65;;;14.00;99.90;;;;;;5054556;28;20557;-69
2022/06/06 04:52:01;;;;;;;6.65;4.47;;;14.00;99.90;;;;;;5050919;28;20122;-66
2022/06/06 04:54:30;;;;;;;4.65;4.22;;;14.00;99.90;;;;;;5032911;28;20409;-66
2022/06/06 04:57:00;;;;;;;4.40;4.00;;;14.10;99.90;;;;;;5053521;28;20141;-66
2022/06/06 04:59:28;;;;;;;3.95;3.60;;;14.00;99.90;;;;;;5052479;28;20053;-68
2022/06/06 05:01:55;;;;;;;4.20;3.80;;;14.00;99.90;;;;;;5054381;28;20056;-67
2022/06/06 05:04:21;;;;;;;2.80;2.60;;;14.00;99.90;;;;;;5054628;28;20048;-68
2022/06/06 05:06:52;;;;;;;1.98;1.83;;;14.10;99.90;;;;;;5055875;28;20556;-67
2022/06/06 05:09:27;;;;;;;2.33;1.80;;;14.00;99.90;;;;;;5051361;28;20489;-68
2022/06/06 05:12:19;;;;;;;2.25;2.03;;;14.00;99.90;;;;;;5053180;28;20401;-68
2022/06/06 05:15:04;;;;;;;2.45;2.30;;;14.00;99.90;;;;;;5063561;28;20047;-68
2022/06/06 05:17:56;;;;;;;3.10;2.90;;;14.00;99.90;;;;;;5052621;28;20056;-68
2022/06/06 05:20:53;;;;;;;3.35;3.00;;;14.00;99.90;;;;;;5052888;28;20058;-68
2022/06/06 05:23:44;;;;;;;3.53;3.15;;;13.90;99.90;;;;;;5049991;28;20462;-68
2022/06/06 05:26:43;;;;;;;4.85;4.30;;;13.90;99.90;;;;;;5050288;28;20059;-68
2022/06/06 05:29:37;;;;;;;5.50;4.95;;;13.80;99.90;;;;;;5051930;28;20049;-68
2022/06/06 05:32:31;;;;;;;6.05;5.03;;;13.80;99.90;;;;;;5053232;28;20068;-68
2022/06/06 05:35:08;;;;;;;6.07;4.68;;;13.80;99.90;;;;;;5049991;28;20057;-68
2022/06/06 05:37:43;;;;;;;7.25;4.93;;;13.70;99.90;;;;;;5053710;28;20081;-68
2022/06/06 05:40:08;;;;;;;6.00;4.82;;;13.80;99.90;;;;;;5050370;28;20505;-68
2022/06/06 05:42:37;;;;;;;5.95;4.78;;;14.00;99.90;;;;;;5052615;28;20095;-68
2022/06/06 05:45:25;;;;;;;9.23;5.43;;;13.70;99.90;;;;;;5049008;28;20505;-68
2022/06/06 05:48:34;;;;;;;8.23;5.85;;;13.60;99.90;;;;;;5047629;28;20083;-68
2022/06/06 05:51:31;;;;;;;8.43;6.25;;;13.70;99.90;;;;;;5051736;28;20045;-67
2022/06/06 05:54:18;;;;;;;12.02;7.60;;;13.60;99.90;;;;;;5052797;28;20102;-69
2022/06/06 05:57:12;;;;;;;9.27;6.57;;;13.60;99.90;;;;;;5034858;28;20048;-68
2022/06/06 06:00:06;;;;;;;14.05;7.97;;;13.60;99.90;;;;;;5056013;28;20045;-68
2022/06/06 06:03:02;;;;;;;13.60;7.72;;;13.60;99.90;;;;;;5054734;28;20137;-67
2022/06/06 06:05:47;;;;;;;11.77;7.57;;;13.60;99.90;;;;;;5054514;28;20044;-68
2022/06/06 06:08:43;;;;;;;9.32;6.78;;;14.00;99.90;;;;;;5052605;28;20052;-67
2022/06/06 06:11:39;;;;;;;11.52;6.60;;;13.60;99.90;;;;;;5052578;28;20565;-67
2022/06/06 06:14:30;;;;;;;9.02;6.20;;;13.50;99.90;;;;;;5051634;28;20051;-68
2022/06/06 06:16:59;;;;;;;7.65;5.47;;;13.50;99.90;;;;;;5048632;28;20157;-67
2022/06/06 06:19:33;;;;;;;7.10;5.22;;;13.50;99.90;;;;;;5053678;28;20053;-68
2022/06/06 06:22:01;;;;;;;8.02;6.57;;;13.60;99.90;;;;;;5051496;28;20052;-68
2022/06/06 06:24:33;;;;;;;10.18;6.03;;;13.60;99.90;;;;;;5053950;28;20081;-68
2022/06/06 06:27:02;;;;;;;7.30;6.10;;;13.50;99.90;;;;;;5050684;28;20045;-68
2022/06/06 06:29:28;;;;;;;7.57;5.68;;;13.50;99.90;;;;;;5049842;28;20037;-67
2022/06/06 06:32:08;;;;;;;9.70;6.22;;;13.40;99.90;;;;;;5052336;28;20455;-67
2022/06/06 06:34:47;;;;;;;10.20;5.80;;;13.90;99.90;;;;;;5054305;28;20037;-68
2022/06/06 06:37:43;;;;;;;9.35;5.65;;;13.40;99.90;;;;;;5061296;28;20041;-68
2022/06/06 06:40:17;;;;;;;8.75;5.20;;;13.50;99.90;;;;;;5053088;28;20545;-67
2022/06/06 06:42:58;;;;;;;12.00;5.93;;;13.40;99.90;;;;;;5045305;28;20048;-66
2022/06/06 06:45:29;;;;;;;6.90;5.18;;;13.50;99.90;;;;;;5045571;28;20132;-67
2022/06/06 06:48:12;;;;;;;6.23;4.77;;;13.50;99.90;;;;;;5045513;28;20033;-67
2022/06/06 06:50:54;;;;;;;6.30;5.20;;;13.50;99.90;;;;;;5046843;28;20687;-68
2022/06/06 06:53:39;;;;;;;5.25;4.05;;;13.50;99.90;;;;;;5049075;28;20102;-68
2022/06/06 06:56:22;;;;;;;3.67;3.30;;;14.00;99.90;;;;;;5016804;28;20368;-67
2022/06/06 06:59:13;;;;;;;3.05;2.75;;;13.60;99.90;;;;;;5052066;28;20036;-67
2022/06/06 07:11:01;;;;;;;6.32;2.90;;;13.70;99.90;;;;;;5059961;28;20085;-68
2022/06/06 07:13:59;;;;;;;3.90;2.38;;;13.70;99.90;;;;;;5047640;28;20083;-67
2022/06/06 07:16:37;;;;;;;2.97;2.65;;;13.80;99.90;;;;;;5051679;28;20052;-67
2022/06/06 07:19:06;;;;;;;3.33;3.03;;;13.80;99.90;;;;;;5050551;28;20469;-68
2022/06/06 07:21:35;;;;;;;2.70;2.50;;;14.00;99.90;;;;;;5061474;28;20080;-68
2022/06/06 07:24:05;;;;;;;5.03;2.63;;;14.00;99.90;;;;;;5052041;28;20056;-67
2022/06/06 07:26:37;;;;;;;2.92;2.65;;;14.10;99.90;;;;;;5060487;28;20060;-68
2022/06/06 07:29:05;;;;;;;3.40;3.00;;;14.10;99.90;;;;;;5054615;28;20509;-68
2022/06/06 07:32:05;;;;;;;4.85;2.72;;;14.10;99.90;;;;;;5048709;28;20053;-68
2022/06/06 07:34:55;;;;;;;5.07;2.60;;;14.00;99.90;;;;;;5057039;28;20045;-68
2022/06/06 07:37:48;;;;;;;3.90;2.75;;;14.00;99.90;;;;;;5056044;28;20512;-71
2022/06/06 07:40:16;;;;;;;3.13;2.83;;;14.00;99.90;;;;;;5051167;28;20106;-68
2022/06/06 07:42:56;;;;;;;5.63;2.95;;;14.00;99.90;;;;;;5068931;28;20032;-66
2022/06/06 07:45:28;;;;;;;2.95;2.50;;;14.00;99.90;;;;;;5067276;28;20135;-66
2022/06/06 07:48:12;;;;;;;7.68;2.90;;;14.00;99.90;;;;;;5067454;28;20475;-68
2022/06/06 07:51:06;;;;;;;3.08;2.67;;;14.00;99.90;;;;;;5068432;28;20162;-72
2022/06/06 07:53:47;;;;;;;4.30;2.80;;;14.00;99.90;;;;;;5051383;28;20645;-73
2022/06/06 07:56:27;;;;;;;9.43;2.85;;;14.00;99.90;;;;;;5047199;28;20057;-75
2022/06/06 07:59:05;;;;;;;6.22;3.08;;;14.10;99.90;;;;;;5052544;28;20131;-72
2022/06/06 08:01:40;;;;;;;5.10;2.65;;;14.30;99.90;;;;;;5058202;28;20080;-72
2022/06/06 08:04:41;;;;;;;7.55;3.30;;;14.20;99.90;;;;;;5047671;28;20076;-64
2022/06/06 08:07:17;;;;;;;4.60;2.85;;;14.40;99.90;;;;;;5049043;28;20068;-73
2022/06/06 08:10:14;;;;;;;10.27;3.13;;;14.50;99.90;;;;;;5056064;28;20044;-74
2022/06/06 08:13:01;;;;;;;3.75;2.60;;;14.80;99.90;;;;;;5045320;28;20500;-74
2022/06/06 08:15:47;;;;;;;6.00;2.97;;;15.00;99.90;;;;;;5045879;28;20070;-73
2022/06/06 08:18:32;;;;;;;4.05;3.13;;;15.20;99.90;;;;;;5046481;28;20057;-73
2022/06/06 08:21:14;;;;;;;4.60;2.78;;;15.20;99.90;;;;;;5045918;28;20587;-76
2022/06/06 08:23:42;;;;;;;4.22;2.53;;;15.30;99.90;;;;;;5028465;28;20040;-76
2022/06/06 08:26:10;;;;;;;4.25;2.90;;;15.20;99.90;;;;;;5044926;28;20055;-74
2022/06/06 08:28:40;;;;;;;6.95;2.83;;;15.10;99.90;;;;;;5045474;28;20051;-73
2022/06/06 08:31:07;;;;;;;4.07;2.88;;;15.10;99.90;;;;;;5045748;28;20053;-74
2022/06/06 08:33:33;;;;;;;8.80;3.28;;;15.10;99.90;;;;;;5054235;28;20049;-74
2022/06/06 08:36:33;;;;;;;4.47;2.60;;;15.10;99.90;;;;;;5055829;28;20078;-74
2022/06/06 08:39:19;;;;;;;4.78;2.60;;;15.20;99.90;;;;;;5045842;28;20045;-75
2022/06/06 08:42:02;;;;;;;4.40;1.90;;;15.30;99.90;;;;;;5034670;28;20059;-74
2022/06/06 08:44:48;;;;;;;3.75;2.10;;;15.40;99.90;;;;;;5044955;28;20574;-73
2022/06/06 08:47:48;;;;;;;2.88;1.90;;;15.40;99.90;;;;;;5048379;28;20040;-76
2022/06/06 08:50:47;;;;;;;8.18;2.72;;;15.30;99.90;;;;;;5050627;28;20055;-73
2022/06/06 08:53:44;;;;;;;3.42;2.28;;;15.20;99.90;;;;;;5057956;28;20080;-74
2022/06/06 08:56:44;;;;;;;5.65;2.40;;;15.00;99.90;;;;;;5056952;28;20378;-75
2022/06/06 08:59:25;;;;;;;4.35;2.78;;;14.90;99.90;;;;;;5024314;28;20041;-74
2022/06/06 09:02:24;;;;;;;4.47;3.00;;;14.90;99.90;;;;;;5040054;28;20155;-73
2022/06/06 09:05:18;;;;;;;3.53;2.50;;;14.80;99.90;;;;;;5053416;28;20048;-73
2022/06/06 09:08:03;;;;;;;5.53;3.47;;;14.70;99.90;;;;;;5039194;28;20057;-73
2022/06/06 09:10:55;;;;;;;8.10;3.60;;;14.70;99.90;;;;;;5045334;28;20060;-73
2022/06/06 09:13:58;;;;;;;6.43;4.00;;;14.60;99.90;;;;;;5050626;28;20136;-72
2022/06/06 09:16:44;;;;;;;;;;;14.60;99.90;;;;;;5044898;28;20053;-73
2022/06/06 09:19:50;;;;;;;5.90;4.75;;;14.60;99.90;;;;;;5032784;28;19983;-73
2022/06/06 09:22:35;;;;;;;10.23;5.03;;;14.70;99.90;;;;;;5048077;28;20052;-73
2022/06/06 09:25:15;;;;;;;8.15;5.10;;;15.00;99.90;;;;;;5046396;28;20421;-73
2022/06/06 09:27:53;;;;;;;6.35;5.07;;;15.30;99.90;;;;;;5045541;28;20048;-73
2022/06/06 09:31:21;;;;;;;6.80;4.18;;;15.50;99.90;;;;;;5046473;28;20045;-73
2022/06/06 09:33:58;;;;;;;5.45;3.28;;;15.60;99.90;;;;;;5043016;28;20136;-73
2022/06/06 09:36:44;;;;;;;6.93;3.25;;;15.60;99.90;;;;;;5043503;28;20056;-72
2022/06/06 09:39:39;;;;;;;3.13;2.92;;;15.80;99.90;;;;;;5044233;28;20075;-74
2022/06/06 09:42:19;;;;;;;5.15;2.85;;;15.90;99.90;;;;;;5046574;28;20593;-72
2022/06/06 09:44:44;;;;;;;5.90;3.08;;;16.10;99.90;;;;;;5053415;28;20039;-73
2022/06/06 09:47:15;;;;;;;6.40;3.33;;;16.30;99.90;;;;;;5046046;28;20052;-74
2022/06/06 09:50:09;;;;;;;6.63;2.63;;;16.40;99.90;;;;;;5043456;28;20556;-72
2022/06/06 09:52:46;;;;;;;7.40;2.50;;;16.40;99.90;;;;;;5049941;28;20302;-73
2022/06/06 09:59:03;;;;;;;5.35;2.38;;;16.80;99.90;;;;;;5053554;28;20451;-73
2022/06/06 10:02:06;;;;;;;7.97;2.50;;;17.00;99.90;;;;;;5055150;28;20490;-73
2022/06/06 10:04:59;;;;;;;5.18;2.10;;;17.10;99.90;;;;;;5046131;28;20078;-73
2022/06/06 10:07:44;;;;;;;12.07;3.35;;;17.00;99.90;;;;;;5053268;28;20049;-73
2022/06/06 10:10:40;;;;;;;5.00;2.05;;;17.10;99.90;;;;;;5048260;28;20088;-72
2022/06/06 10:13:43;;;;;;;5.07;1.80;;;17.20;99.90;;;;;;5047485;28;20045;-72
2022/06/06 10:16:21;;;;;;;4.28;2.03;;;17.20;99.90;;;;;;5046615;28;20057;-74
2022/06/06 10:19:05;;;;;;;5.38;1.90;;;17.40;99.90;;;;;;5052754;28;20562;-73
2022/06/06 10:21:55;;;;;;;4.03;1.77;;;17.40;99.90;;;;;;5043140;28;20052;-73
2022/06/06 10:24:53;;;;;;;5.13;1.63;;;17.60;99.90;;;;;;5032497;28;20045;-72
2022/06/06 10:27:25;;;;;;;5.35;1.30;;;17.70;99.90;;;;;;5049990;28;20045;-73
2022/06/06 10:30:11;;;;;;;4.25;1.52;;;17.80;99.90;;;;;;5047850;28;20049;-72
2022/06/06 10:33:02;;;;;;;8.23;2.47;;;17.90;99.90;;;;;;5058174;28;20167;-73
2022/06/06 10:35:46;;;;;;;12.35;2.22;;;18.00;99.90;;;;;;5056607;28;20098;-73
2022/06/06 10:38:36;;;;;;;5.22;1.38;;;18.10;99.90;;;;;;5058995;28;20048;-75
2022/06/06 10:41:39;;;;;;;4.03;1.40;;;18.10;99.90;;;;;;5062216;28;20052;-72
2022/06/06 10:44:22;;;;;;;3.33;1.60;;;18.00;99.90;;;;;;5051674;28;20056;-73
2022/06/06 10:47:46;;;;;;;5.15;1.60;;;17.90;99.90;;;;;;5051641;28;20608;-73
2022/06/06 10:50:20;;;;;;;8.05;1.50;;;18.00;99.90;;;;;;4995945;28;20054;-75
2022/06/06 10:53:17;;;;;;;3.60;1.00;;;18.20;99.90;;;;;;5018397;28;20381;-74
2022/06/06 10:56:05;;;;;;;6.32;2.20;;;18.30;99.90;;;;;;5046201;28;20055;-75
2022/06/06 10:58:31;;;;;;;2.38;0.90;;;18.10;99.90;;;;;;5058596;28;20055;-73
2022/06/06 11:01:18;;;;;;;3.88;1.27;;;18.10;99.90;;;;;;5050240;28;20087;-74
2022/06/06 11:04:18;;;;;;;3.83;1.13;;;18.10;99.90;;;;;;5055053;28;20060;-73
2022/06/06 11:07:16;;;;;;;3.55;1.30;;;17.90;99.90;;;;;;5065763;28;20040;-72
2022/06/06 11:09:59;;;;;;;4.93;1.80;;;17.90;99.90;;;;;;5021354;28;20056;-75
2022/06/06 11:13:13;;;;;;;4.05;1.65;;;18.00;99.90;;;;;;5052763;28;20075;-74
2022/06/06 11:16:10;;;;;;;8.80;1.70;;;18.20;99.90;;;;;;5052138;28;20149;-75
2022/06/06 11:19:13;;;;;;;5.57;1.30;;;18.30;99.90;;;;;;5048071;28;20056;-75
2022/06/06 11:21:42;;;;;;;5.13;1.27;;;18.20;99.90;;;;;;5055950;28;20059;-74
2022/06/06 11:24:20;;;;;;;3.63;0.95;;;18.20;99.90;;;;;;5052231;28;20040;-75
2022/06/06 11:27:30;;;;;;;3.95;1.35;;;18.30;99.90;;;;;;5048845;28;20045;-76
2022/06/06 11:30:19;;;;;;;4.78;1.00;;;18.50;99.90;;;;;;5049103;28;20071;-74
2022/06/06 11:32:59;;;;;;;3.97;1.42;;;18.60;99.90;;;;;;5056188;28;20036;-74
2022/06/06 11:36:04;;;;;;;4.25;1.15;;;18.80;99.90;;;;;;5053057;28;20493;-75
2022/06/06 11:39:04;;;;;;;4.88;1.13;;;19.00;99.90;;;;;;5047250;28;20052;-75
2022/06/06 11:41:48;;;;;;;4.88;1.38;;;18.90;99.90;;;;;;5031880;28;20558;-74
2022/06/06 11:44:33;;;;;;;2.47;1.05;;;18.70;99.90;;;;;;5050597;28;20044;-74
2022/06/06 11:47:43;;;;;;;2.75;1.10;;;18.40;99.90;;;;;;5057261;28;20642;-73
2022/06/06 11:50:47;;;;;;;4.63;1.08;;;18.30;99.90;;;;;;5018040;28;20056;-73
2022/06/06 11:53:47;;;;;;;2.47;1.15;;;18.10;99.90;;;;;;5050923;28;20044;-73
2022/06/06 11:56:28;;;;;;;7.05;1.55;;;17.90;99.90;;;;;;5041814;28;20059;-73
2022/06/06 11:59:29;;;;;;;3.70;1.20;;;17.80;99.90;;;;;;5048728;28;20296;-72
2022/06/06 12:02:12;;;;;;;4.10;1.45;;;17.70;99.90;;;;;;5028265;28;20076;-73
2022/06/06 12:05:05;;;;;;;4.05;1.25;;;17.60;99.90;;;;;;5047722;28;20760;-74
2022/06/06 12:07:42;;;;;;;6.55;1.88;;;17.60;99.90;;;;;;5047271;28;20090;-73
2022/06/06 12:10:36;;;;;;;7.25;1.42;;;17.60;99.90;;;;;;5030039;28;20326;-73
2022/06/06 12:13:23;;;;;;;4.32;1.40;;;17.70;99.90;;;;;;5042340;28;20053;-73
2022/06/06 12:16:15;;;;;;;5.05;1.27;;;18.40;99.90;;;;;;5045975;28;20051;-73
2022/06/06 12:18:40;;;;;;;4.13;1.50;;;18.00;99.90;;;;;;5045462;28;20049;-74
2022/06/06 12:21:35;;;;;;;1.75;0.80;;;18.10;99.90;;;;;;5026976;28;20049;-76
2022/06/06 12:24:19;;;;;;;2.65;0.93;;;18.10;99.90;;;;;;5063021;28;20123;-73
2022/06/06 12:27:15;;;;;;;3.47;0.95;;;18.00;99.90;;;;;;5066706;28;20041;-73
2022/06/06 12:29:53;;;;;;;22.00;2.00;;;17.80;99.90;;;;;;5066470;28;20561;-72
2022/06/06 12:32:38;;;;;;;4.47;1.20;;;17.50;99.90;;;;;;5066320;28;20461;-73
2022/06/06 12:35:28;;;;;;;5.75;1.20;;;17.50;99.90;;;;;;5062012;28;20053;-74
2022/06/06 12:38:25;;;;;;;3.00;1.30;;;17.40;99.90;;;;;;5060750;28;20052;-74
2022/06/06 12:41:14;;;;;;;3.55;1.48;;;17.40;99.90;;;;;;5049916;28;20589;-73
2022/06/06 12:43:55;;;;;;;4.43;1.58;;;17.50;99.90;;;;;;5031168;28;20102;-73
2022/06/06 12:46:21;;;;;;;5.70;1.77;;;17.60;99.90;;;;;;5046713;28;20045;-73
2022/06/06 12:49:24;;;;;;;13.15;1.58;;;17.70;99.90;;;;;;5028108;28;20053;-74
2022/06/06 12:52:09;;;;;;;2.28;0.95;;;17.70;99.90;;;;;;5056375;28;20074;-73
2022/06/06 12:57:58;;;;;;;6.65;1.42;;;17.50;99.90;;;;;;5045647;28;20053;-74
2022/06/06 13:03:29;;;;;;;5.13;1.90;;;16.90;99.90;;;;;;5053536;28;20084;-74
2022/06/06 13:06:07;;;;;;;4.85;1.77;;;16.70;99.90;;;;;;5044977;28;20464;-73
2022/06/06 13:09:08;;;;;;;2.80;1.55;;;16.40;99.90;;;;;;5047812;28;20588;-73
2022/06/06 13:11:55;;;;;;;2.80;1.38;;;16.10;99.90;;;;;;5046979;28;20052;-73
2022/06/06 13:14:44;;;;;;;4.03;1.23;;;15.80;99.90;;;;;;5047648;28;20052;-73
2022/06/06 13:17:35;;;;;;;3.17;1.50;;;15.70;99.90;;;;;;5051753;28;20420;-75
2022/06/06 13:20:07;;;;;;;2.78;1.52;;;15.60;99.90;;;;;;5044068;28;20497;-74
2022/06/06 13:23:04;;;;;;;3.28;1.77;;;15.60;99.90;;;;;;5052277;28;20086;-73
2022/06/06 13:26:27;;;;;;;4.18;1.63;;;15.60;99.90;;;;;;5050832;28;20500;-74
2022/06/06 13:28:55;;;;;;;6.95;2.28;;;15.70;99.90;;;;;;4986640;28;20061;-74
2022/06/06 13:32:01;;;;;;;4.13;1.77;;;15.70;99.90;;;;;;5002558;28;20046;-74
2022/06/06 13:35:06;;;;;;;2.65;1.90;;;15.50;99.90;;;;;;5045451;28;20065;-78
2022/06/06 13:38:04;;;;;;;2.95;1.67;;;15.40;99.90;;;;;;5043844;28;20060;-73
2022/06/06 13:40:45;;;;;;;3.00;2.08;;;15.20;99.90;;;;;;5047731;28;20059;-73
2022/06/06 13:43:48;;;;;;;3.60;1.92;;;15.20;99.90;;;;;;5050557;28;20119;-73
2022/06/06 13:46:52;;;;;;;5.05;0.85;;;15.20;99.90;;;;;;5049730;28;20048;-74
2022/06/06 13:49:51;;;;;;;2.03;0.90;;;15.10;99.90;;;;;;5008312;28;20061;-78
2022/06/06 13:52:45;;;;;;;1.52;1.40;;;14.90;99.90;;;;;;5050032;28;20052;-74
2022/06/06 13:55:31;;;;;;;3.55;1.38;;;14.90;99.90;;;;;;5051212;28;20049;-74
2022/06/06 13:58:14;;;;;;;4.32;1.77;;;14.70;99.90;;;;;;5050743;28;20452;-76
2022/06/06 14:01:11;;;;;;;3.60;2.08;;;14.70;99.90;;;;;;5053190;28;20300;-73
2022/06/06 14:04:06;;;;;;;4.50;2.42;;;14.60;99.90;;;;;;5033032;28;20049;-73
2022/06/06 14:07:13;;;;;;;4.93;2.58;;;14.60;99.90;;;;;;5033633;28;20067;-73
2022/06/06 14:09:42;;;;;;;3.47;2.45;;;14.60;99.90;;;;;;5043547;28;20041;-73
2022/06/06 14:12:31;;;;;;;6.28;3.22;;;14.80;99.90;;;;;;5045226;28;20277;-73
2022/06/06 14:15:03;;;;;;;2.70;2.50;;;14.40;99.90;;;;;;5044728;28;20084;-72
2022/06/06 14:17:31;;;;;;;9.57;3.70;;;14.20;99.90;;;;;;5046928;28;20057;-70
2022/06/06 14:20:20;;;;;;;3.92;3.05;;;14.20;99.90;;;;;;5060957;28;20080;-70
2022/06/06 14:22:49;;;;;;;4.88;2.75;;;14.20;99.90;;;;;;5052374;28;20048;-73
2022/06/06 14:25:15;;;;;;;4.47;2.97;;;14.30;99.90;;;;;;5046150;28;20037;-73
2022/06/06 14:27:42;;;;;;;4.35;3.30;;;14.10;99.90;;;;;;5049942;28;20049;-72